createdAt,value
2017-05-13T00:00:29.454Z,12.3
2017-05-13T00:01:31.846Z,12.3
2017-05-13T00:02:34.230Z,12
2017-05-13T00:03:36.600Z,12.3
2017-05-13T00:04:39.024Z,12.2
2017-05-13T00:05:41.459Z,12.3
2017-05-13T00:06:43.788Z,12.5
2017-05-13T00:07:46.176Z,12.3
2017-05-13T00:08:48.545Z,12.4
2017-05-13T00:09:50.915Z,12.5
2017-05-13T00:10:53.373Z,12.4
2017-05-13T00:11:55.808Z,12.4
2017-05-13T00:12:58.160Z,12.3
2017-05-13T00:14:00.515Z,12.3
2017-05-13T00:15:02.954Z,12
2017-05-13T00:16:05.303Z,11.9
2017-05-13T00:17:07.688Z,11.9
2017-05-13T00:18:10.038Z,12
2017-05-13T00:19:12.437Z,12.1
2017-05-13T00:20:14.805Z,12.2
2017-05-13T00:21:17.204Z,12.2
2017-05-13T00:22:19.588Z,12.1
2017-05-13T00:23:21.950Z,12
2017-05-13T00:24:24.312Z,12.1
2017-05-13T00:25:26.639Z,11.9
2017-05-13T00:26:29.027Z,12
2017-05-13T00:27:31.436Z,11.9
2017-05-13T00:28:33.805Z,12
2017-05-13T00:29:36.167Z,12.1
2017-05-13T00:30:38.553Z,12
2017-05-13T00:31:40.901Z,11.9
2017-05-13T00:32:43.322Z,11.9
2017-05-13T00:33:45.669Z,11.9
2017-05-13T00:34:48.418Z,11.9
2017-05-13T00:35:50.911Z,11.9
2017-05-13T00:36:53.289Z,11.8
2017-05-13T00:37:55.653Z,11.9
2017-05-13T00:38:58.983Z,11.9
2017-05-13T00:40:01.385Z,11.9
2017-05-13T00:41:04.412Z,12.1
2017-05-13T00:42:06.765Z,12.1
2017-05-13T00:43:09.136Z,12.1
2017-05-13T00:44:11.544Z,12
2017-05-13T00:45:13.896Z,12
2017-05-13T00:46:16.256Z,12
2017-05-13T00:47:18.670Z,12
2017-05-13T00:48:21.762Z,12
2017-05-13T00:49:24.125Z,11.9
2017-05-13T00:50:26.500Z,11.9
2017-05-13T00:51:28.897Z,11.7
2017-05-13T00:52:31.300Z,11.5
2017-05-13T00:53:33.666Z,11.7
2017-05-13T00:54:36.051Z,11.9
2017-05-13T00:55:38.482Z,11.8
2017-05-13T00:56:40.881Z,11.8
2017-05-13T00:57:43.309Z,11.9
2017-05-13T00:58:45.674Z,12
2017-05-13T00:59:48.036Z,12
2017-05-13T01:00:50.392Z,12.1
2017-05-13T01:01:52.802Z,12.2
2017-05-13T01:02:55.170Z,12.1
2017-05-13T01:03:57.561Z,12.1
2017-05-13T01:04:59.929Z,11.7
2017-05-13T01:06:02.358Z,11.9
2017-05-13T01:07:04.704Z,11.9
2017-05-13T01:08:07.050Z,11.9
2017-05-13T01:09:09.459Z,11.8
2017-05-13T01:10:11.852Z,11.9
2017-05-13T01:11:14.250Z,12
2017-05-13T01:12:16.610Z,11.9
2017-05-13T01:13:18.964Z,12
2017-05-13T01:14:21.332Z,12.2
2017-05-13T01:15:23.688Z,12.3
2017-05-13T01:16:26.043Z,12.2
2017-05-13T01:17:28.358Z,12.2
2017-05-13T01:18:30.772Z,12.2
2017-05-13T01:19:33.111Z,12.3
2017-05-13T01:20:35.469Z,12.4
2017-05-13T01:21:37.829Z,12.4
2017-05-13T01:22:40.183Z,12.4
2017-05-13T01:23:42.549Z,12.3
2017-05-13T01:24:44.918Z,12.2
2017-05-13T01:25:47.297Z,12.1
2017-05-13T01:26:49.664Z,12
2017-05-13T01:27:52.013Z,12
2017-05-13T01:28:54.355Z,12
2017-05-13T01:29:56.723Z,11.8
2017-05-13T01:30:59.076Z,12
2017-05-13T01:32:01.450Z,11.8
2017-05-13T01:33:03.778Z,12.1
2017-05-13T01:34:06.163Z,12.2
2017-05-13T01:35:08.534Z,12
2017-05-13T01:36:10.886Z,11.9
2017-05-13T01:37:13.237Z,12
2017-05-13T01:38:15.587Z,11.9
2017-05-13T01:39:18.003Z,12
2017-05-13T01:40:20.415Z,12.1
2017-05-13T01:41:22.927Z,12
2017-05-13T01:42:25.415Z,12
2017-05-13T01:43:28.034Z,11.9
2017-05-13T01:44:30.442Z,11.8
2017-05-13T01:45:32.857Z,12
2017-05-13T01:46:35.391Z,11.9
2017-05-13T01:47:37.719Z,12.1
2017-05-13T01:48:40.071Z,12.2
2017-05-13T01:49:42.553Z,12.2
2017-05-13T01:50:44.976Z,12.5
2017-05-13T01:51:47.331Z,12.4
2017-05-13T01:52:49.686Z,12.5
2017-05-13T01:53:52.060Z,12.8
2017-05-13T01:54:54.401Z,13
2017-05-13T01:55:56.797Z,13.1
2017-05-13T01:56:59.728Z,13.3
2017-05-13T01:58:02.090Z,13.3
2017-05-13T01:59:04.472Z,13.3
2017-05-13T02:00:06.858Z,13.4
2017-05-13T02:01:09.257Z,13.1
2017-05-13T02:02:11.704Z,13.3
2017-05-13T02:03:14.087Z,13.1
2017-05-13T02:04:16.432Z,13.1
2017-05-13T02:05:18.769Z,12.7
2017-05-13T02:06:21.135Z,12.6
2017-05-13T02:07:23.496Z,12.7
2017-05-13T02:08:25.828Z,12.7
2017-05-13T02:09:28.171Z,12.7
2017-05-13T02:10:30.526Z,12.7
2017-05-13T02:11:32.879Z,12.6
2017-05-13T02:12:35.363Z,12.5
2017-05-13T02:13:37.809Z,12.4
2017-05-13T02:14:40.165Z,12.3
2017-05-13T02:15:42.639Z,12.3
2017-05-13T02:16:45.677Z,12.3
2017-05-13T02:17:48.075Z,12.2
2017-05-13T02:18:50.468Z,12.4
2017-05-13T02:19:52.932Z,12.5
2017-05-13T02:20:55.323Z,12.1
2017-05-13T02:21:57.652Z,12
2017-05-13T02:23:00.014Z,12.1
2017-05-13T02:24:02.479Z,12.2
2017-05-13T02:25:04.839Z,12.3
2017-05-13T02:26:07.234Z,12.2
2017-05-13T02:27:09.619Z,12.1
2017-05-13T02:28:12.020Z,12
2017-05-13T02:29:14.453Z,12
2017-05-13T02:30:16.810Z,12
2017-05-13T02:31:19.180Z,11.6
2017-05-13T02:32:21.537Z,11.6
2017-05-13T02:33:23.897Z,11.6
2017-05-13T02:34:26.230Z,11.6
2017-05-13T02:35:29.310Z,11.6
2017-05-13T02:36:31.717Z,11.8
2017-05-13T02:37:34.106Z,11.9
2017-05-13T02:38:36.453Z,11.8
2017-05-13T02:39:38.826Z,11.7
2017-05-13T02:40:41.188Z,11.8
2017-05-13T02:41:43.582Z,11.8
2017-05-13T02:42:45.924Z,11.8
2017-05-13T02:43:48.349Z,11.6
2017-05-13T02:44:50.712Z,11.5
2017-05-13T02:45:53.092Z,11.3
2017-05-13T02:46:55.453Z,11.4
2017-05-13T02:47:57.822Z,11.4
2017-05-13T02:49:00.197Z,11.4
2017-05-13T02:50:02.573Z,11.5
2017-05-13T02:51:04.963Z,11.4
2017-05-13T02:52:07.352Z,11.4
2017-05-13T02:53:09.692Z,11.1
2017-05-13T02:54:12.120Z,11.2
2017-05-13T02:55:14.451Z,11.3
2017-05-13T02:56:16.808Z,11.3
2017-05-13T02:57:19.175Z,11.1
2017-05-13T02:58:21.605Z,10.8
2017-05-13T02:59:23.983Z,11
2017-05-13T03:00:26.353Z,11.1
2017-05-13T03:01:28.705Z,11.1
2017-05-13T03:02:31.041Z,11.1
2017-05-13T03:03:33.379Z,11
2017-05-13T03:04:35.776Z,11
2017-05-13T03:05:38.123Z,10.8
2017-05-13T03:06:40.496Z,10.9
2017-05-13T03:07:42.914Z,10.8
2017-05-13T03:08:45.248Z,10.7
2017-05-13T03:09:47.684Z,10.8
2017-05-13T03:10:50.019Z,11
2017-05-13T03:11:52.428Z,11.2
2017-05-13T03:12:54.773Z,11.3
2017-05-13T03:13:57.106Z,11.6
2017-05-13T03:14:59.562Z,11.8
2017-05-13T03:16:01.965Z,12
2017-05-13T03:17:04.295Z,12.1
2017-05-13T03:18:06.675Z,12.1
2017-05-13T03:19:09.583Z,12.1
2017-05-13T03:20:11.941Z,12.3
2017-05-13T03:21:14.323Z,12.4
2017-05-13T03:22:16.628Z,13
2017-05-13T03:23:18.956Z,12.9
2017-05-13T03:24:22.387Z,13
2017-05-13T03:25:24.729Z,13
2017-05-13T03:26:27.078Z,13.1
2017-05-13T03:27:29.415Z,13.1
2017-05-13T03:28:31.810Z,13.1
2017-05-13T03:29:34.166Z,13.1
2017-05-13T03:30:36.545Z,13.2
2017-05-13T03:31:38.923Z,13.2
2017-05-13T03:32:41.242Z,13.3
2017-05-13T03:33:43.595Z,13.2
2017-05-13T03:34:45.982Z,13.2
2017-05-13T03:35:48.364Z,13.3
2017-05-13T03:36:50.698Z,13.2
2017-05-13T03:37:53.651Z,13.2
2017-05-13T03:38:56.626Z,13.3
2017-05-13T03:39:58.986Z,13.3
2017-05-13T03:41:01.376Z,13.3
2017-05-13T03:42:03.720Z,13.4
2017-05-13T03:43:06.100Z,13.4
2017-05-13T03:44:08.510Z,13.4
2017-05-13T03:45:10.885Z,13.4
2017-05-13T03:46:13.242Z,13.4
2017-05-13T03:47:15.588Z,13.5
2017-05-13T03:48:17.960Z,13.5
2017-05-13T03:49:20.407Z,13.6
2017-05-13T03:50:22.802Z,13.6
2017-05-13T03:51:25.176Z,13.6
2017-05-13T03:52:27.534Z,13.6
2017-05-13T03:53:29.886Z,13.7
2017-05-13T03:54:32.267Z,13.6
2017-05-13T03:55:34.648Z,13.7
2017-05-13T03:56:36.991Z,13.6
2017-05-13T03:57:39.329Z,13.5
2017-05-13T03:58:41.743Z,13.6
2017-05-13T03:59:44.102Z,13.6
2017-05-13T04:00:46.518Z,13.6
2017-05-13T04:01:48.909Z,13.6
2017-05-13T04:02:51.273Z,13.6
2017-05-13T04:03:53.657Z,13.7
2017-05-13T04:04:56.312Z,13.6
2017-05-13T04:05:58.678Z,13.6
2017-05-13T04:07:01.052Z,13.5
2017-05-13T04:08:03.389Z,13.5
2017-05-13T04:09:05.752Z,13.5
2017-05-13T04:10:08.100Z,13.5
2017-05-13T04:11:10.493Z,13.6
2017-05-13T04:12:12.879Z,13.5
2017-05-13T04:13:15.233Z,13.4
2017-05-13T04:14:17.593Z,13.4
2017-05-13T04:15:19.917Z,13.4
2017-05-13T04:16:22.272Z,13.4
2017-05-13T04:17:24.900Z,13.4
2017-05-13T04:18:27.272Z,13.4
2017-05-13T04:19:29.664Z,13.4
2017-05-13T04:20:32.074Z,13.4
2017-05-13T04:21:34.403Z,13.5
2017-05-13T04:22:36.751Z,13.4
2017-05-13T04:23:39.116Z,13.4
2017-05-13T04:24:41.517Z,13.5
2017-05-13T04:25:43.862Z,13.4
2017-05-13T04:26:46.220Z,13.4
2017-05-13T04:27:48.562Z,13.5
2017-05-13T04:28:50.891Z,13.6
2017-05-13T04:29:53.256Z,13.6
2017-05-13T04:30:55.613Z,13.5
2017-05-13T04:31:57.957Z,13.5
2017-05-13T04:33:00.354Z,13.4
2017-05-13T04:34:02.733Z,13.5
2017-05-13T04:35:05.119Z,13.4
2017-05-13T04:36:07.516Z,13.4
2017-05-13T04:37:09.862Z,13.4
2017-05-13T04:38:12.249Z,13.4
2017-05-13T04:39:14.608Z,13.4
2017-05-13T04:40:16.952Z,13.4
2017-05-13T04:41:19.294Z,13.4
2017-05-13T04:42:21.657Z,13.4
2017-05-13T04:43:24.049Z,13.5
2017-05-13T04:44:26.382Z,13.6
2017-05-13T04:45:28.721Z,13.6
2017-05-13T04:46:31.048Z,13.6
2017-05-13T04:47:33.436Z,13.6
2017-05-13T04:48:36.027Z,13.6
2017-05-13T04:49:38.386Z,13.7
2017-05-13T04:50:40.772Z,13.6
2017-05-13T04:51:43.167Z,13.7
2017-05-13T04:52:45.496Z,13.7
2017-05-13T04:53:47.884Z,13.8
2017-05-13T04:54:50.308Z,13.9
2017-05-13T04:55:52.669Z,13.8
2017-05-13T04:56:55.035Z,13.9
2017-05-13T04:58:06.316Z,14
2017-05-13T04:59:08.713Z,14
2017-05-13T05:00:11.117Z,14.1
2017-05-13T05:01:13.535Z,14.1
2017-05-13T05:02:15.957Z,14
2017-05-13T05:03:18.340Z,14.2
2017-05-13T05:04:20.712Z,14.3
2017-05-13T05:05:23.751Z,14.4
2017-05-13T05:06:26.085Z,14.4
2017-05-13T05:07:28.439Z,14.4
2017-05-13T05:08:30.854Z,14.5
2017-05-13T05:09:33.812Z,14.5
2017-05-13T05:10:36.556Z,14.6
2017-05-13T05:11:38.919Z,14.6
2017-05-13T05:12:42.042Z,14.6
2017-05-13T05:13:44.432Z,14.6
2017-05-13T05:14:47.620Z,14.6
2017-05-13T05:15:50.028Z,14.7
2017-05-13T05:16:52.406Z,14.7
2017-05-13T05:17:54.751Z,14.9
2017-05-13T05:18:57.114Z,14.9
2017-05-13T05:19:59.499Z,15
2017-05-13T05:21:01.855Z,15.1
2017-05-13T05:22:04.173Z,15.2
2017-05-13T05:23:06.542Z,15.2
2017-05-13T05:24:08.957Z,15.4
2017-05-13T05:25:11.323Z,15.6
2017-05-13T05:26:16.469Z,15.7
2017-05-13T05:27:18.876Z,15.9
2017-05-13T05:28:21.232Z,16.1
2017-05-13T05:29:23.609Z,16.1
2017-05-13T05:30:25.947Z,16.2
2017-05-13T05:31:28.274Z,16.2
2017-05-13T05:32:30.645Z,16.3
2017-05-13T05:33:33.069Z,16.5
2017-05-13T05:34:44.372Z,16.9
2017-05-13T05:35:46.772Z,17
2017-05-13T05:36:49.438Z,17.2
2017-05-13T05:37:51.871Z,17.3
2017-05-13T05:38:54.218Z,17.4
2017-05-13T05:39:56.526Z,17.6
2017-05-13T05:40:58.907Z,17.7
2017-05-13T05:42:01.278Z,17.7
2017-05-13T05:43:03.628Z,17.5
2017-05-13T05:44:05.984Z,17.5
2017-05-13T05:45:08.341Z,17.3
2017-05-13T05:46:10.755Z,17.4
2017-05-13T05:47:13.142Z,17.5
2017-05-13T05:48:15.493Z,17.7
2017-05-13T05:49:17.899Z,17.5
2017-05-13T05:50:20.276Z,17.5
2017-05-13T05:51:22.721Z,17.9
2017-05-13T05:52:25.088Z,18
2017-05-13T05:53:27.484Z,18
2017-05-13T05:54:29.909Z,18.3
2017-05-13T05:55:32.344Z,18.3
2017-05-13T05:56:34.712Z,18.5
2017-05-13T05:57:37.071Z,18.8
2017-05-13T05:58:39.517Z,19.1
2017-05-13T05:59:44.089Z,19
2017-05-13T06:00:46.500Z,18.6
2017-05-13T06:01:48.871Z,18.5
2017-05-13T06:02:51.249Z,18.3
2017-05-13T06:03:53.769Z,18.1
2017-05-13T06:04:56.162Z,18.1
2017-05-13T06:05:58.515Z,18.5
2017-05-13T06:07:00.977Z,19.1
2017-05-13T06:08:03.456Z,19.6
2017-05-13T06:09:06.690Z,18.9
2017-05-13T06:10:09.070Z,18.6
2017-05-13T06:11:11.428Z,17.8
2017-05-13T06:12:13.788Z,17.6
2017-05-13T06:13:16.156Z,17.5
2017-05-13T06:14:18.548Z,17.4
2017-05-13T06:15:20.962Z,17.2
2017-05-13T06:16:23.380Z,17.3
2017-05-13T06:17:25.768Z,17.3
2017-05-13T06:18:28.112Z,17.4
2017-05-13T06:19:30.512Z,17.8
2017-05-13T06:20:32.908Z,18.1
2017-05-13T06:21:35.280Z,18.2
2017-05-13T06:22:37.676Z,18.3
2017-05-13T06:23:40.060Z,18.2
2017-05-13T06:24:42.518Z,18.2
2017-05-13T06:25:44.898Z,18.2
2017-05-13T06:26:47.344Z,18
2017-05-13T06:27:49.736Z,18.1
2017-05-13T06:28:52.180Z,18.1
2017-05-13T06:29:54.586Z,18
2017-05-13T06:30:56.931Z,18.1
2017-05-13T06:31:59.347Z,18.2
2017-05-13T06:33:01.692Z,18.3
2017-05-13T06:34:04.189Z,18.4
2017-05-13T06:35:06.576Z,18.4
2017-05-13T06:36:09.002Z,18.4
2017-05-13T06:37:11.377Z,18.4
2017-05-13T06:38:13.795Z,18.6
2017-05-13T06:39:16.169Z,19
2017-05-13T06:40:18.576Z,19.5
2017-05-13T06:41:20.984Z,20.3
2017-05-13T06:42:23.441Z,20.8
2017-05-13T06:43:25.846Z,20.9
2017-05-13T06:44:28.256Z,20.7
2017-05-13T06:45:39.537Z,20.3
2017-05-13T06:46:42.009Z,20
2017-05-13T06:47:44.419Z,19.9
2017-05-13T06:48:46.805Z,19.9
2017-05-13T06:49:49.228Z,19.9
2017-05-13T06:50:51.623Z,19.9
2017-05-13T06:51:54.048Z,20
2017-05-13T06:52:56.471Z,19.9
2017-05-13T06:53:58.875Z,19.9
2017-05-13T06:55:01.364Z,19.9
2017-05-13T06:56:04.074Z,19.7
2017-05-13T06:57:06.461Z,19.9
2017-05-13T06:58:08.872Z,20.4
2017-05-13T06:59:11.251Z,20.3
2017-05-13T07:00:13.696Z,20.1
2017-05-13T07:01:16.077Z,20.1
2017-05-13T07:02:18.548Z,20
2017-05-13T07:03:21.977Z,19.9
2017-05-13T07:04:24.373Z,20.2
2017-05-13T07:05:29.546Z,19.9
2017-05-13T07:06:31.997Z,20
2017-05-13T07:07:34.365Z,19.9
2017-05-13T07:08:36.803Z,19.7
2017-05-13T07:09:39.218Z,19.9
2017-05-13T07:10:41.649Z,20
2017-05-13T07:11:44.117Z,19.8
2017-05-13T07:12:46.490Z,19.6
2017-05-13T07:13:48.883Z,19.4
2017-05-13T07:14:51.310Z,19.6
2017-05-13T07:15:53.782Z,19.4
2017-05-13T07:16:56.145Z,19.4
2017-05-13T07:17:58.541Z,19.4
2017-05-13T07:19:00.877Z,19.3
2017-05-13T07:20:03.314Z,19.5
2017-05-13T07:21:05.677Z,19.5
2017-05-13T07:22:08.073Z,19.3
2017-05-13T07:23:10.691Z,19.4
2017-05-13T07:24:13.110Z,19.4
2017-05-13T07:25:20.691Z,19.4
2017-05-13T07:26:23.204Z,19.6
2017-05-13T07:27:26.235Z,19.7
2017-05-13T07:28:28.675Z,19.6
2017-05-13T07:29:31.126Z,19.6
2017-05-13T07:30:33.702Z,19.7
2017-05-13T07:31:36.140Z,19.8
2017-05-13T07:32:47.540Z,19.9
2017-05-13T07:33:49.976Z,20
2017-05-13T07:34:52.423Z,19.8
2017-05-13T07:36:03.822Z,19.8
2017-05-13T07:37:06.252Z,20.1
2017-05-13T07:38:08.694Z,20.3
2017-05-13T07:39:11.392Z,20.4
2017-05-13T07:40:13.863Z,20.5
2017-05-13T07:41:16.237Z,20.5
2017-05-13T07:42:18.640Z,20.4
2017-05-13T07:43:21.715Z,20.1
2017-05-13T07:44:24.181Z,20.1
2017-05-13T07:45:26.636Z,20
2017-05-13T07:46:29.057Z,20.2
2017-05-13T07:47:32.567Z,20
2017-05-13T07:48:34.916Z,19.9
2017-05-13T07:49:37.290Z,20
2017-05-13T07:50:39.644Z,20.2
2017-05-13T07:51:42.165Z,20.1
2017-05-13T07:52:44.545Z,19.6
2017-05-13T07:53:46.996Z,19.1
2017-05-13T07:54:49.709Z,18.8
2017-05-13T07:55:52.189Z,18.9
2017-05-13T07:56:55.051Z,18.8
2017-05-13T07:57:58.033Z,18.7
2017-05-13T07:59:00.458Z,19
2017-05-13T08:00:03.711Z,19.1
2017-05-13T08:01:06.770Z,19.3
2017-05-13T08:02:09.792Z,18.9
2017-05-13T08:03:12.344Z,19.1
2017-05-13T08:04:15.524Z,21.3
2017-05-13T08:05:26.935Z,21.9
2017-05-13T08:06:29.338Z,22.5
2017-05-13T08:07:31.789Z,22.5
2017-05-13T08:08:34.197Z,22.8
2017-05-13T08:09:36.663Z,22.6
2017-05-13T08:10:39.254Z,23.2
2017-05-13T08:11:41.861Z,23.7
2017-05-13T08:12:44.399Z,23.8
2017-05-13T08:13:47.138Z,24
2017-05-13T08:14:49.536Z,24.4
2017-05-13T08:15:51.980Z,24.6
2017-05-13T08:16:54.424Z,24.1
2017-05-13T08:17:56.869Z,23.9
2017-05-13T08:18:59.331Z,23.2
2017-05-13T08:20:01.760Z,22.9
2017-05-13T08:21:04.887Z,23.6
2017-05-13T08:22:07.974Z,24.3
2017-05-13T08:23:10.436Z,23.1
2017-05-13T08:24:12.992Z,23.5
2017-05-13T08:25:15.398Z,23.7
2017-05-13T08:26:20.508Z,23
2017-05-13T08:27:24.003Z,22.6
2017-05-13T08:28:27.947Z,22.9
2017-05-13T08:29:30.471Z,22.3
2017-05-13T08:30:32.947Z,23.3
2017-05-13T08:31:36.293Z,23.2
2017-05-13T08:32:40.905Z,24.4
2017-05-13T08:33:45.225Z,23.4
2017-05-13T08:34:47.689Z,22.8
2017-05-13T08:35:50.668Z,22.2
2017-05-13T08:36:53.086Z,22
2017-05-13T08:37:56.501Z,21.9
2017-05-13T08:38:59.584Z,22.3
2017-05-13T08:40:02.055Z,22.1
2017-05-13T08:41:04.518Z,21.9
2017-05-13T08:42:06.976Z,21.7
2017-05-13T08:43:10.609Z,22.6
2017-05-13T08:44:13.200Z,22.8
2017-05-13T08:45:16.796Z,23
2017-05-13T08:46:19.228Z,22.4
2017-05-13T08:47:21.708Z,22.3
2017-05-13T08:48:24.316Z,22.7
2017-05-13T08:49:26.792Z,23.9
2017-05-13T08:50:29.275Z,24.3
2017-05-13T08:51:33.151Z,24.9
2017-05-13T08:52:35.552Z,25.4
2017-05-13T08:53:37.983Z,24.7
2017-05-13T08:54:40.534Z,24.6
2017-05-13T08:55:43.077Z,24.9
2017-05-13T08:56:45.513Z,25.9
2017-05-13T08:57:47.994Z,27.2
2017-05-13T08:58:50.444Z,26.2
2017-05-13T08:59:53.000Z,25.7
2017-05-13T09:00:55.488Z,25.6
2017-05-13T09:01:57.890Z,25.4
2017-05-13T09:03:00.343Z,24.4
2017-05-13T09:04:02.941Z,25
2017-05-13T09:05:05.362Z,25.1
2017-05-13T09:06:07.822Z,25.5
2017-05-13T09:07:10.191Z,26
2017-05-13T09:08:12.664Z,26.9
2017-05-13T09:09:15.400Z,27.4
2017-05-13T09:10:17.901Z,27.3
2017-05-13T09:11:20.390Z,26.8
2017-05-13T09:12:22.765Z,27.1
2017-05-13T09:13:25.893Z,27.4
2017-05-13T09:14:28.342Z,28
2017-05-13T09:15:30.793Z,28.2
2017-05-13T09:16:33.243Z,28.4
2017-05-13T09:17:35.789Z,28.4
2017-05-13T09:18:38.283Z,28.2
2017-05-13T09:19:40.703Z,28.9
2017-05-13T09:20:43.185Z,29.4
2017-05-13T09:21:45.667Z,28.8
2017-05-13T09:22:48.164Z,29.2
2017-05-13T09:23:51.315Z,29
2017-05-13T09:24:54.072Z,27.8
2017-05-13T09:25:56.570Z,27.9
2017-05-13T09:26:59.053Z,27.4
2017-05-13T09:28:01.626Z,28.4
2017-05-13T09:29:04.169Z,28.4
2017-05-13T09:30:06.669Z,28.1
2017-05-13T09:31:09.143Z,27.9
2017-05-13T09:32:11.578Z,27.4
2017-05-13T09:33:14.139Z,27.9
2017-05-13T09:34:16.628Z,27.7
2017-05-13T09:35:19.088Z,27
2017-05-13T09:36:22.209Z,25.7
2017-05-13T09:37:24.775Z,25.2
2017-05-13T09:38:27.249Z,25
2017-05-13T09:39:29.969Z,24.6
2017-05-13T09:40:32.461Z,24.7
2017-05-13T09:41:35.103Z,24.8
2017-05-13T09:42:37.543Z,24.5
2017-05-13T09:43:40.052Z,24.1
2017-05-13T09:44:42.591Z,23.9
2017-05-13T09:45:45.101Z,24.4
2017-05-13T09:46:48.578Z,24.5
2017-05-13T09:47:51.012Z,24.7
2017-05-13T09:48:53.520Z,24.6
2017-05-13T09:49:56.037Z,26.5
2017-05-13T09:50:58.559Z,27.5
2017-05-13T09:52:00.990Z,26.9
2017-05-13T09:53:03.422Z,26.1
2017-05-13T09:54:05.994Z,26.9
2017-05-13T09:55:09.071Z,26.8
2017-05-13T09:56:11.811Z,26.7
2017-05-13T09:57:14.355Z,26.8
2017-05-13T09:58:16.925Z,28.2
2017-05-13T09:59:19.441Z,27.5
2017-05-13T10:00:21.962Z,28.1
2017-05-13T10:01:25.173Z,29
2017-05-13T10:02:27.685Z,28.9
2017-05-13T10:03:30.219Z,28.6
2017-05-13T10:04:32.658Z,28.3
2017-05-13T10:05:35.178Z,29.4
2017-05-13T10:06:37.661Z,28.6
2017-05-13T10:07:40.330Z,28.8
2017-05-13T10:08:43.423Z,28.6
2017-05-13T10:09:46.043Z,28.9
2017-05-13T10:10:48.739Z,28.3
2017-05-13T10:11:51.290Z,27.9
2017-05-13T10:12:53.811Z,27.3
2017-05-13T10:13:57.382Z,27.2
2017-05-13T10:15:00.423Z,26.4
2017-05-13T10:16:03.031Z,26.5
2017-05-13T10:17:05.652Z,25.6
2017-05-13T10:18:08.242Z,25.8
2017-05-13T10:19:10.816Z,26.3
2017-05-13T10:20:13.242Z,26.4
2017-05-13T10:21:15.729Z,26.5
2017-05-13T10:22:18.309Z,26.6
2017-05-13T10:23:20.838Z,26.4
2017-05-13T10:24:23.359Z,26.9
2017-05-13T10:25:26.602Z,26.6
2017-05-13T10:26:29.151Z,26.3
2017-05-13T10:27:31.581Z,26.3
2017-05-13T10:28:34.016Z,26.3
2017-05-13T10:29:36.623Z,26.4
2017-05-13T10:30:39.102Z,26.4
2017-05-13T10:31:41.803Z,26.7
2017-05-13T10:32:44.554Z,27
2017-05-13T10:33:47.253Z,26.9
2017-05-13T10:34:49.981Z,26.6
2017-05-13T10:35:52.447Z,26.1
2017-05-13T10:36:55.006Z,25.4
2017-05-13T10:38:03.929Z,25.1
2017-05-13T10:39:06.573Z,23.8
2017-05-13T10:40:09.196Z,24.2
2017-05-13T10:41:11.746Z,25.2
2017-05-13T10:42:14.282Z,25.5
2017-05-13T10:43:16.827Z,25.7
2017-05-13T10:44:19.316Z,25.3
2017-05-13T10:45:22.868Z,25
2017-05-13T10:46:25.496Z,25.3
2017-05-13T10:47:28.298Z,25.7
2017-05-13T10:48:31.816Z,26.8
2017-05-13T10:49:35.423Z,26.6
2017-05-13T10:50:37.964Z,26.7
2017-05-13T10:51:40.494Z,27.2
2017-05-13T10:52:43.046Z,27.5
2017-05-13T10:53:46.009Z,26.8
2017-05-13T10:54:49.409Z,27
2017-05-13T10:55:51.940Z,27.4
2017-05-13T10:56:54.412Z,27.2
2017-05-13T10:57:56.989Z,25.8
2017-05-13T10:58:59.531Z,26.1
2017-05-13T11:00:02.058Z,26.2
2017-05-13T11:01:04.601Z,26
2017-05-13T11:02:07.103Z,26
2017-05-13T11:03:09.671Z,25.9
2017-05-13T11:04:12.180Z,26
2017-05-13T11:05:24.769Z,27.1
2017-05-13T11:06:27.234Z,27
2017-05-13T11:07:30.688Z,25.9
2017-05-13T11:08:33.217Z,25.2
2017-05-13T11:09:35.899Z,24.6
2017-05-13T11:10:38.399Z,24.6
2017-05-13T11:11:41.141Z,24.3
2017-05-13T11:12:43.657Z,24.1
2017-05-13T11:13:46.217Z,23.8
2017-05-13T11:14:49.743Z,23.7
2017-05-13T11:15:52.944Z,23.4
2017-05-13T11:16:55.488Z,23.3
2017-05-13T11:17:58.643Z,23.7
2017-05-13T11:19:01.714Z,23.5
2017-05-13T11:20:04.223Z,22.8
2017-05-13T11:21:07.227Z,23.4
2017-05-13T11:22:09.689Z,23.1
2017-05-13T11:23:13.239Z,23
2017-05-13T11:24:15.787Z,22.8
2017-05-13T11:25:18.262Z,22.6
2017-05-13T11:26:20.795Z,22.5
2017-05-13T11:27:23.929Z,22.5
2017-05-13T11:28:26.458Z,22.2
2017-05-13T11:29:29.004Z,22.6
2017-05-13T11:30:31.434Z,22.3
2017-05-13T11:31:33.902Z,21.8
2017-05-13T11:32:36.458Z,22
2017-05-13T11:33:39.201Z,21.6
2017-05-13T11:34:41.692Z,21.4
2017-05-13T11:35:44.816Z,21.2
2017-05-13T11:36:47.347Z,20.9
2017-05-13T11:37:49.906Z,21
2017-05-13T11:38:52.356Z,20.8
2017-05-13T11:39:54.783Z,20.8
2017-05-13T11:40:57.316Z,20.8
2017-05-13T11:41:59.806Z,20.6
2017-05-13T11:43:03.354Z,20.8
2017-05-13T11:44:05.908Z,20.5
2017-05-13T11:45:09.361Z,20.7
2017-05-13T11:46:11.880Z,20.3
2017-05-13T11:47:14.473Z,20.2
2017-05-13T11:48:17.038Z,20.3
2017-05-13T11:49:20.062Z,20.3
2017-05-13T11:50:22.909Z,20.6
2017-05-13T11:51:25.544Z,20.5
2017-05-13T11:52:28.071Z,20.4
2017-05-13T11:53:30.604Z,20.7
2017-05-13T11:54:33.051Z,20.7
2017-05-13T11:55:36.530Z,20.4
2017-05-13T11:56:39.067Z,20.4
2017-05-13T11:57:41.674Z,20.6
2017-05-13T11:58:44.888Z,20.6
2017-05-13T11:59:47.977Z,20.4
2017-05-13T12:00:51.089Z,20.3
2017-05-13T12:01:53.578Z,20.3
2017-05-13T12:02:56.538Z,20.2
2017-05-13T12:03:59.030Z,20.4
2017-05-13T12:05:01.540Z,20.7
2017-05-13T12:06:04.708Z,21
2017-05-13T12:07:07.492Z,21.5
2017-05-13T12:08:10.616Z,21.9
2017-05-13T12:09:13.783Z,22.1
2017-05-13T12:10:16.625Z,22.8
2017-05-13T12:11:19.152Z,22.7
2017-05-13T12:12:21.674Z,22.4
2017-05-13T12:13:24.218Z,22.3
2017-05-13T12:14:27.843Z,22.4
2017-05-13T12:15:31.319Z,22
2017-05-13T12:16:34.920Z,22
2017-05-13T12:17:38.140Z,21.7
2017-05-13T12:18:40.717Z,22
2017-05-13T12:19:44.283Z,21.5
2017-05-13T12:20:47.832Z,21.4
2017-05-13T12:21:50.474Z,21.4
2017-05-13T12:22:52.996Z,20.7
2017-05-13T12:23:55.779Z,21.2
2017-05-13T12:24:58.329Z,21.6
2017-05-13T12:26:00.846Z,21.3
2017-05-13T12:27:03.413Z,21.3
2017-05-13T12:28:06.625Z,21.5
2017-05-13T12:29:09.066Z,22.2
2017-05-13T12:30:12.178Z,22.8
2017-05-13T12:31:16.473Z,23
2017-05-13T12:32:19.020Z,22.8
2017-05-13T12:33:21.463Z,22.9
2017-05-13T12:34:23.908Z,22.8
2017-05-13T12:35:26.490Z,22.6
2017-05-13T12:36:29.026Z,22.2
2017-05-13T12:37:32.170Z,22.4
2017-05-13T12:38:34.718Z,22.8
2017-05-13T12:39:37.314Z,23
2017-05-13T12:40:39.778Z,23.1
2017-05-13T12:41:42.952Z,23.2
2017-05-13T12:42:45.448Z,22.8
2017-05-13T12:43:48.023Z,22.7
2017-05-13T12:44:51.196Z,22.7
2017-05-13T12:45:53.717Z,22.6
2017-05-13T12:46:56.236Z,22.7
2017-05-13T12:47:59.524Z,22.5
2017-05-13T12:49:02.047Z,22.5
2017-05-13T12:50:04.488Z,22.2
2017-05-13T12:51:07.012Z,22.2
2017-05-13T12:52:09.482Z,22.4
2017-05-13T12:53:11.950Z,22.5
2017-05-13T12:54:14.418Z,22.7
2017-05-13T12:55:19.083Z,22.8
2017-05-13T12:56:21.568Z,22.9
2017-05-13T12:57:24.090Z,22.9
2017-05-13T12:58:26.597Z,23.2
2017-05-13T12:59:30.043Z,23
2017-05-13T13:00:33.695Z,23.2
2017-05-13T13:01:36.191Z,23.3
2017-05-13T13:02:47.603Z,23.3
2017-05-13T13:03:51.087Z,23.3
2017-05-13T13:04:53.553Z,23.3
2017-05-13T13:05:56.022Z,23.2
2017-05-13T13:06:59.650Z,23.2
2017-05-13T13:08:05.171Z,23.6
2017-05-13T13:09:07.710Z,23.5
2017-05-13T13:10:10.226Z,23.2
2017-05-13T13:11:21.433Z,23.4
2017-05-13T13:12:23.897Z,23.6
2017-05-13T13:13:26.518Z,23.5
2017-05-13T13:14:30.773Z,23.4
2017-05-13T13:15:33.215Z,23.6
2017-05-13T13:16:36.444Z,23.6
2017-05-13T13:17:38.947Z,23.5
2017-05-13T13:18:43.560Z,23.7
2017-05-13T13:19:46.103Z,23.7
2017-05-13T13:20:49.370Z,23.8
2017-05-13T13:21:52.810Z,23.8
2017-05-13T13:22:56.693Z,23.7
2017-05-13T13:24:00.792Z,23.5
2017-05-13T13:25:03.722Z,23.2
2017-05-13T13:26:06.269Z,22.8
2017-05-13T13:27:08.744Z,22.5
2017-05-13T13:28:11.304Z,22.5
2017-05-13T13:29:13.898Z,22.4
2017-05-13T13:30:16.462Z,22.4
2017-05-13T13:31:21.019Z,22.5
2017-05-13T13:32:24.676Z,22.7
2017-05-13T13:33:27.302Z,23
2017-05-13T13:34:30.091Z,23.1
2017-05-13T13:35:33.067Z,22.8
2017-05-13T13:36:35.587Z,22.5
2017-05-13T13:37:38.208Z,22.5
2017-05-13T13:38:41.230Z,22.7
2017-05-13T13:39:43.843Z,22.9
2017-05-13T13:40:46.394Z,22.9
2017-05-13T13:41:48.973Z,23.3
2017-05-13T13:42:51.525Z,23.3
2017-05-13T13:43:54.096Z,23.1
2017-05-13T13:44:56.649Z,23
2017-05-13T13:45:59.356Z,23
2017-05-13T13:47:02.434Z,22.8
2017-05-13T13:48:05.633Z,22.5
2017-05-13T13:49:08.252Z,22.6
2017-05-13T13:50:10.781Z,22.8
2017-05-13T13:51:13.297Z,23.2
2017-05-13T13:52:17.770Z,23.2
2017-05-13T13:53:21.272Z,23
2017-05-13T13:54:23.833Z,23.4
2017-05-13T13:55:27.537Z,23.7
2017-05-13T13:56:30.176Z,23.6
2017-05-13T13:57:34.299Z,23.7
2017-05-13T13:58:36.847Z,23.7
2017-05-13T13:59:39.429Z,23.9
2017-05-13T14:00:41.966Z,23.7